Time;durP1;ratioP1;P1;durP2;ratioP2;P2;SDS_P1;SDS_P2;PMS_P1;PMS_P2;Temp;Humidity;BMP_temperature;BMP_pressure;BME280_temperature;BME280_humidity;BME280_pressure;Samples;Min_cycle;Max_cycle;Signal;HPM_P1;HPM_P2
2023/05/07 00:00:29;;;;;;;3.90;2.50;;;14.50;98.00;;;;;;5033574;28;20461;-63
2023/05/07 00:02:58;;;;;;;4.90;2.93;;;14.40;98.00;;;;;;5033329;28;20478;-64
2023/05/07 00:05:25;;;;;;;4.37;2.60;;;14.40;98.00;;;;;;5033661;28;20620;-63
2023/05/07 00:07:53;;;;;;;8.23;3.03;;;14.40;98.00;;;;;;5015817;28;20542;-64
2023/05/07 00:10:20;;;;;;;5.13;3.27;;;14.30;98.00;;;;;;5033227;28;20509;-64
2023/05/07 00:12:48;;;;;;;3.77;2.43;;;14.20;98.00;;;;;;5033664;28;20505;-63
2023/05/07 00:15:15;;;;;;;4.03;2.57;;;14.20;98.00;;;;;;5033200;28;20459;-64
2023/05/07 00:17:42;;;;;;;9.20;2.63;;;14.10;98.00;;;;;;5033373;28;20833;-63
2023/05/07 00:20:11;;;;;;;6.30;2.83;;;14.10;98.00;;;;;;5033062;28;20454;-64
2023/05/07 00:22:39;;;;;;;3.50;2.70;;;14.10;98.00;;;;;;5033167;28;21008;-65
2023/05/07 00:25:07;;;;;;;5.70;2.83;;;14.10;98.00;;;;;;5015820;28;20967;-63
2023/05/07 00:27:34;;;;;;;4.13;2.50;;;14.10;98.00;;;;;;5033110;28;20462;-63
2023/05/07 00:30:01;;;;;;;9.07;3.07;;;14.30;98.00;;;;;;5033040;28;20456;-64
2023/05/07 00:32:28;;;;;;;4.43;2.63;;;14.40;98.00;;;;;;5033188;28;20466;-63
2023/05/07 00:34:55;;;;;;;4.07;2.73;;;14.30;98.00;;;;;;5033246;28;20820;-64
2023/05/07 00:37:23;;;;;;;3.53;2.57;;;14.20;98.00;;;;;;5033114;28;20458;-63
2023/05/07 00:39:51;;;;;;;4.73;2.60;;;14.10;98.00;;;;;;5032991;28;20462;-63
2023/05/07 00:42:18;;;;;;;7.03;2.87;;;14.20;98.00;;;;;;5015304;28;20953;-63
2023/05/07 00:44:45;;;;;;;4.37;2.67;;;14.30;98.00;;;;;;5032713;28;20568;-63
2023/05/07 00:47:13;;;;;;;4.60;2.50;;;14.30;98.00;;;;;;5032895;28;20983;-63
2023/05/07 00:49:45;;;;;;;4.07;2.70;;;14.30;98.00;;;;;;5032338;28;20459;-64
2023/05/07 00:52:14;;;;;;;5.07;2.80;;;14.30;98.00;;;;;;5015862;28;20490;-65
2023/05/07 00:54:43;;;;;;;4.10;2.70;;;14.20;98.00;;;;;;5032526;28;20490;-63
2023/05/07 00:57:12;;;;;;;3.47;2.77;;;14.40;98.00;;;;;;5032380;28;20463;-63
2023/05/07 00:59:40;;;;;;;4.00;2.60;;;14.40;98.00;;;;;;5032388;28;20573;-63
2023/05/07 01:02:08;;;;;;;3.80;2.53;;;14.20;98.00;;;;;;5032471;28;20549;-63
2023/05/07 01:04:35;;;;;;;5.80;2.93;;;14.10;98.00;;;;;;5032418;28;20513;-62
2023/05/07 01:07:03;;;;;;;4.00;2.60;;;14.10;98.00;;;;;;5032568;28;20504;-64
2023/05/07 01:09:30;;;;;;;3.27;2.60;;;14.10;98.00;;;;;;5032687;28;20977;-63
2023/05/07 01:12:00;;;;;;;4.47;2.57;;;14.00;98.00;;;;;;5032205;28;20827;-63
2023/05/07 01:14:28;;;;;;;4.80;2.90;;;14.00;98.00;;;;;;5032404;28;20458;-63
2023/05/07 01:16:55;;;;;;;9.50;2.53;;;14.00;98.00;;;;;;5032109;28;20512;-64
2023/05/07 01:19:22;;;;;;;2.70;2.50;;;14.10;98.00;;;;;;5032490;28;20460;-64
2023/05/07 01:21:51;;;;;;;3.53;2.30;;;14.10;98.00;;;;;;5033206;28;20466;-63
2023/05/07 01:24:22;;;;;;;4.10;2.50;;;14.20;98.00;;;;;;5032762;28;20855;-63
2023/05/07 01:26:49;;;;;;;6.20;2.87;;;14.10;98.00;;;;;;5032133;28;20585;-64
2023/05/07 01:29:16;;;;;;;4.40;2.70;;;14.00;98.00;;;;;;5033407;28;20539;-63
2023/05/07 01:31:45;;;;;;;5.30;2.77;;;13.90;98.00;;;;;;5033055;28;20457;-63
2023/05/07 01:34:15;;;;;;;3.07;2.10;;;13.90;98.00;;;;;;5032216;28;20448;-63
2023/05/07 01:36:45;;;;;;;4.93;2.63;;;13.80;98.00;;;;;;5031988;28;20455;-64
2023/05/07 01:39:13;;;;;;;4.73;2.30;;;13.80;98.00;;;;;;5031774;28;20450;-64
2023/05/07 01:41:41;;;;;;;4.50;2.80;;;13.90;98.00;;;;;;5031875;28;20458;-64
2023/05/07 01:44:11;;;;;;;3.23;2.33;;;13.80;98.00;;;;;;5031719;28;20849;-63
2023/05/07 01:46:39;;;;;;;5.20;2.53;;;13.70;98.00;;;;;;5031780;28;20526;-64
2023/05/07 01:49:06;;;;;;;6.30;2.90;;;13.70;98.00;;;;;;5031736;28;20470;-64
2023/05/07 01:51:34;;;;;;;3.83;2.47;;;13.70;98.00;;;;;;5031616;28;21033;-63
2023/05/07 01:54:02;;;;;;;4.07;2.33;;;13.80;98.00;;;;;;5031565;28;20855;-63
2023/05/07 01:56:29;;;;;;;3.00;2.10;;;13.70;98.00;;;;;;5031604;28;20462;-63
2023/05/07 01:58:58;;;;;;;2.70;2.27;;;13.60;98.00;;;;;;5031579;28;20502;-63
2023/05/07 02:01:25;;;;;;;3.30;2.47;;;13.50;98.00;;;;;;5030816;28;20465;-64
2023/05/07 02:03:52;;;;;;;3.00;2.13;;;13.50;98.00;;;;;;5031397;28;20489;-64
2023/05/07 02:06:19;;;;;;;4.80;2.80;;;13.40;98.00;;;;;;5031360;28;20462;-63
2023/05/07 02:08:46;;;;;;;4.53;2.97;;;13.50;98.00;;;;;;5031592;28;20458;-62
2023/05/07 02:11:13;;;;;;;3.50;2.47;;;13.50;98.00;;;;;;5031273;28;20523;-63
2023/05/07 02:13:41;;;;;;;4.30;2.50;;;13.40;98.00;;;;;;5031295;28;20457;-62
2023/05/07 02:16:10;;;;;;;3.63;2.40;;;13.40;98.00;;;;;;5014157;28;20455;-63
2023/05/07 02:18:37;;;;;;;5.13;2.77;;;13.40;98.00;;;;;;5031147;28;20457;-64
2023/05/07 02:21:04;;;;;;;3.77;2.70;;;13.30;98.00;;;;;;5031449;28;20464;-63
2023/05/07 02:23:32;;;;;;;5.90;2.60;;;13.30;98.00;;;;;;5031089;28;20496;-64
2023/05/07 02:25:59;;;;;;;3.10;2.43;;;13.40;98.00;;;;;;5031324;28;20452;-63
2023/05/07 02:28:26;;;;;;;8.30;2.70;;;13.20;98.00;;;;;;5013700;28;20469;-63
2023/05/07 02:30:58;;;;;;;4.47;2.73;;;13.30;98.00;;;;;;5031200;28;20461;-64
2023/05/07 02:33:26;;;;;;;4.10;2.50;;;13.20;98.00;;;;;;5031028;28;20465;-64
2023/05/07 02:35:53;;;;;;;5.70;2.80;;;13.20;98.00;;;;;;5030959;28;20942;-64
2023/05/07 02:38:20;;;;;;;3.50;2.40;;;13.20;98.00;;;;;;5027988;28;20459;-62
2023/05/07 02:40:47;;;;;;;5.30;2.77;;;13.10;98.00;;;;;;5031045;28;20450;-63
2023/05/07 02:43:14;;;;;;;5.03;2.47;;;13.10;98.00;;;;;;5031005;28;20951;-63
2023/05/07 02:45:43;;;;;;;3.10;2.30;;;12.90;98.00;;;;;;5030852;28;20463;-64
2023/05/07 02:48:10;;;;;;;3.93;2.60;;;12.90;98.00;;;;;;5031133;28;20478;-63
2023/05/07 02:50:38;;;;;;;4.37;2.40;;;12.90;98.00;;;;;;5012856;28;20460;-64
2023/05/07 02:53:06;;;;;;;3.83;2.40;;;12.80;98.00;;;;;;5030787;28;20507;-63
2023/05/07 02:55:33;;;;;;;5.13;3.07;;;12.80;98.00;;;;;;5030075;28;20465;-64
2023/05/07 02:58:00;;;;;;;6.20;2.63;;;12.70;98.00;;;;;;5013210;28;20481;-63
2023/05/07 03:00:29;;;;;;;3.30;2.13;;;12.60;98.00;;;;;;5030728;28;20458;-64
2023/05/07 03:02:56;;;;;;;4.07;2.43;;;12.60;98.00;;;;;;5030593;28;20461;-63
2023/05/07 03:05:23;;;;;;;5.83;3.00;;;12.70;98.00;;;;;;5030936;28;20984;-64
2023/05/07 03:07:52;;;;;;;3.93;2.60;;;12.70;98.00;;;;;;5013423;28;20473;-62
2023/05/07 03:10:19;;;;;;;3.57;2.50;;;12.70;98.00;;;;;;5030608;28;20470;-65
2023/05/07 03:12:46;;;;;;;5.60;3.00;;;12.70;98.00;;;;;;5033851;28;20488;-63
2023/05/07 03:15:13;;;;;;;4.00;2.40;;;12.70;98.00;;;;;;5034593;28;20459;-64
2023/05/07 03:17:40;;;;;;;3.07;2.23;;;12.60;98.00;;;;;;5034611;28;20473;-63
2023/05/07 03:20:09;;;;;;;3.33;2.40;;;12.50;98.00;;;;;;5034539;28;20970;-64
2023/05/07 03:22:36;;;;;;;4.30;2.60;;;12.50;98.00;;;;;;5034271;28;20481;-63
2023/05/07 03:25:06;;;;;;;3.60;2.73;;;12.40;98.00;;;;;;5034123;28;20486;-64
2023/05/07 03:27:33;;;;;;;3.87;2.57;;;12.40;98.00;;;;;;5034151;28;20455;-64
2023/05/07 03:30:01;;;;;;;3.00;2.27;;;12.60;98.00;;;;;;5034095;28;20464;-63
2023/05/07 03:32:31;;;;;;;2.90;2.23;;;12.40;98.00;;;;;;5034143;28;20457;-63
2023/05/07 03:34:58;;;;;;;5.60;3.10;;;12.40;98.00;;;;;;5034051;28;20962;-63
2023/05/07 03:37:25;;;;;;;4.53;2.73;;;12.40;98.00;;;;;;5033985;28;20460;-63
2023/05/07 03:39:53;;;;;;;4.40;2.33;;;12.30;98.00;;;;;;5033945;28;20460;-63
2023/05/07 03:42:21;;;;;;;5.23;2.70;;;12.40;98.00;;;;;;5033926;28;20473;-63
2023/05/07 03:44:48;;;;;;;3.47;2.40;;;12.40;98.00;;;;;;5033785;28;20487;-64
2023/05/07 03:47:15;;;;;;;3.60;2.70;;;12.50;98.00;;;;;;5033764;28;20499;-63
2023/05/07 03:49:42;;;;;;;6.53;3.30;;;12.60;98.00;;;;;;5033752;28;20456;-64
2023/05/07 03:52:10;;;;;;;4.40;2.77;;;12.70;98.00;;;;;;5033792;28;20461;-63
2023/05/07 03:54:37;;;;;;;3.60;2.43;;;12.70;98.00;;;;;;5016183;28;20466;-63
2023/05/07 03:57:04;;;;;;;3.63;2.27;;;12.60;98.00;;;;;;5033517;28;20454;-63
2023/05/07 03:59:33;;;;;;;6.80;2.60;;;12.40;98.00;;;;;;5033607;28;20463;-63
2023/05/07 04:02:00;;;;;;;4.70;3.13;;;12.30;98.00;;;;;;5033593;28;20456;-63
2023/05/07 04:04:27;;;;;;;4.60;2.33;;;12.30;98.00;;;;;;5015747;28;20487;-63
2023/05/07 04:06:55;;;;;;;5.50;2.50;;;12.10;98.00;;;;;;5033472;28;20829;-63
2023/05/07 04:09:22;;;;;;;3.00;2.20;;;12.10;98.00;;;;;;5032634;28;20465;-62
2023/05/07 04:11:52;;;;;;;4.40;2.40;;;12.20;98.00;;;;;;5033384;28;20454;-63
2023/05/07 04:14:19;;;;;;;3.70;2.30;;;12.30;98.00;;;;;;5033392;28;20538;-64
2023/05/07 04:16:48;;;;;;;3.40;2.40;;;12.30;98.00;;;;;;5033346;28;20457;-63
2023/05/07 04:19:15;;;;;;;10.40;2.63;;;12.30;98.00;;;;;;5033410;28;20462;-62
2023/05/07 04:21:42;;;;;;;2.83;2.20;;;12.30;98.00;;;;;;5033260;28;20476;-63
2023/05/07 04:24:09;;;;;;;2.80;2.17;;;12.40;98.00;;;;;;5032473;28;20485;-63
2023/05/07 04:26:36;;;;;;;2.10;1.93;;;12.30;98.00;;;;;;5033284;28;20469;-63
2023/05/07 04:29:04;;;;;;;3.33;1.97;;;12.30;98.00;;;;;;5032990;28;20457;-64
2023/05/07 04:31:31;;;;;;;5.37;2.67;;;12.30;98.00;;;;;;5015565;28;20448;-63
2023/05/07 04:34:00;;;;;;;3.63;2.07;;;12.40;98.00;;;;;;5033043;28;20458;-63
2023/05/07 04:36:28;;;;;;;3.63;2.30;;;12.40;98.00;;;;;;5033032;28;20824;-63
2023/05/07 04:38:56;;;;;;;3.50;2.40;;;12.40;98.00;;;;;;5033012;28;20483;-63
2023/05/07 04:41:37;;;;;;;4.03;2.60;;;12.50;98.00;;;;;;5033322;28;20454;-63
2023/05/07 04:44:05;;;;;;;3.80;2.40;;;12.50;98.00;;;;;;5033533;28;20588;-63
2023/05/07 04:46:34;;;;;;;4.30;2.40;;;12.40;98.00;;;;;;5033311;28;20458;-63
2023/05/07 04:49:03;;;;;;;3.77;2.30;;;12.40;98.00;;;;;;5033179;28;20469;-63
2023/05/07 04:51:32;;;;;;;4.03;2.73;;;12.40;98.00;;;;;;5032494;28;20463;-63
2023/05/07 04:53:59;;;;;;;4.50;2.47;;;12.40;98.00;;;;;;5032284;28;20458;-64
2023/05/07 04:56:29;;;;;;;6.60;2.70;;;12.50;98.00;;;;;;5036552;28;20948;-62
2023/05/07 04:58:56;;;;;;;3.83;2.40;;;12.70;98.00;;;;;;5052444;28;20552;-63
2023/05/07 05:01:23;;;;;;;5.60;2.80;;;12.70;98.00;;;;;;5052311;28;20506;-63
2023/05/07 05:03:50;;;;;;;3.63;2.37;;;12.70;98.00;;;;;;5052317;28;20453;-63
2023/05/07 05:06:19;;;;;;;4.80;2.87;;;12.70;98.00;;;;;;5017939;28;20519;-63
2023/05/07 05:08:47;;;;;;;5.53;2.53;;;12.60;98.00;;;;;;5052367;28;20460;-63
2023/05/07 05:11:14;;;;;;;4.60;2.90;;;12.50;98.00;;;;;;5052678;28;20456;-63
2023/05/07 05:13:41;;;;;;;2.70;2.30;;;12.40;98.00;;;;;;5052169;28;20458;-64
2023/05/07 05:16:08;;;;;;;4.10;2.70;;;12.40;98.00;;;;;;5052191;28;20519;-63
2023/05/07 05:18:36;;;;;;;8.17;3.23;;;12.50;98.00;;;;;;5052160;28;20488;-64
2023/05/07 05:21:03;;;;;;;3.00;2.40;;;12.50;98.00;;;;;;5052045;28;20679;-63
2023/05/07 05:23:31;;;;;;;3.63;2.70;;;12.60;98.00;;;;;;5051962;28;20460;-63
2023/05/07 05:25:59;;;;;;;3.90;2.40;;;12.70;98.00;;;;;;5051937;28;20510;-63
2023/05/07 05:28:27;;;;;;;3.73;2.50;;;12.80;98.00;;;;;;5051848;28;20468;-63
2023/05/07 05:30:55;;;;;;;2.37;2.10;;;12.90;98.00;;;;;;5051815;28;21045;-64
2023/05/07 05:33:22;;;;;;;4.73;2.77;;;12.90;98.00;;;;;;5051680;28;20958;-64
2023/05/07 05:35:51;;;;;;;4.47;2.67;;;13.10;98.00;;;;;;5050610;28;20527;-64
2023/05/07 05:38:18;;;;;;;3.70;2.33;;;13.10;98.00;;;;;;5051772;28;20543;-63
2023/05/07 05:40:47;;;;;;;3.97;2.80;;;13.20;98.00;;;;;;5051625;28;20822;-64
2023/05/07 05:43:15;;;;;;;5.07;2.63;;;13.20;98.00;;;;;;5051868;28;20461;-65
2023/05/07 05:45:42;;;;;;;4.77;2.40;;;13.20;98.00;;;;;;5051327;28;21026;-64
2023/05/07 05:48:09;;;;;;;4.60;2.90;;;13.20;98.00;;;;;;5051643;28;20468;-64
2023/05/07 05:50:36;;;;;;;5.43;2.77;;;13.30;98.00;;;;;;5051518;28;20568;-63
2023/05/07 05:53:03;;;;;;;5.23;2.80;;;13.40;98.00;;;;;;5051671;28;20929;-63
2023/05/07 05:55:32;;;;;;;4.50;2.70;;;13.60;98.00;;;;;;5051477;28;20457;-63
2023/05/07 05:58:01;;;;;;;4.20;2.83;;;13.80;98.00;;;;;;5051382;28;21058;-63
2023/05/07 06:00:28;;;;;;;4.20;2.70;;;14.00;98.00;;;;;;5051436;28;20468;-63
2023/05/07 06:02:55;;;;;;;5.07;2.60;;;14.10;98.00;;;;;;5051711;28;20457;-63
2023/05/07 06:05:22;;;;;;;5.50;2.97;;;14.10;98.00;;;;;;5051505;28;20512;-62
2023/05/07 06:07:49;;;;;;;4.27;2.57;;;14.40;98.00;;;;;;5051192;28;20984;-63
2023/05/07 06:10:17;;;;;;;4.83;2.73;;;14.40;98.00;;;;;;5051247;28;20469;-62
2023/05/07 06:12:45;;;;;;;4.63;2.63;;;14.50;98.00;;;;;;5050916;28;20468;-63
2023/05/07 06:15:13;;;;;;;4.23;2.50;;;14.50;98.00;;;;;;5051103;28;20464;-63
2023/05/07 06:17:40;;;;;;;5.00;2.93;;;14.60;98.00;;;;;;5051102;28;20449;-62
2023/05/07 06:20:09;;;;;;;5.00;2.80;;;14.90;98.00;;;;;;5051025;28;20453;-62
2023/05/07 06:22:36;;;;;;;4.37;2.80;;;15.00;98.00;;;;;;5050946;28;20868;-63
2023/05/07 06:25:04;;;;;;;4.53;2.80;;;15.00;98.00;;;;;;5051038;28;20775;-63
2023/05/07 06:27:31;;;;;;;5.70;2.70;;;15.20;98.00;;;;;;5050941;28;20454;-63
2023/05/07 06:29:58;;;;;;;5.60;3.17;;;15.20;98.00;;;;;;5050910;28;20461;-63
2023/05/07 06:32:26;;;;;;;4.80;2.83;;;15.30;98.00;;;;;;5051092;28;20458;-63
2023/05/07 06:34:53;;;;;;;5.30;3.30;;;15.40;98.00;;;;;;5050824;28;20465;-63
2023/05/07 06:37:20;;;;;;;5.13;3.10;;;15.40;98.00;;;;;;5051108;28;20789;-63
2023/05/07 06:39:47;;;;;;;4.63;2.93;;;15.50;98.00;;;;;;5050801;28;20959;-62
2023/05/07 06:42:14;;;;;;;6.90;3.53;;;15.60;98.00;;;;;;5051014;28;20866;-62
2023/05/07 06:44:41;;;;;;;7.87;3.57;;;15.50;98.00;;;;;;5050716;28;20580;-63
2023/05/07 06:47:08;;;;;;;5.00;3.33;;;15.40;98.00;;;;;;5053177;28;20457;-62
2023/05/07 06:49:40;;;;;;;5.30;3.20;;;15.60;98.00;;;;;;5054792;28;20462;-63
2023/05/07 06:52:07;;;;;;;5.13;3.17;;;15.60;98.00;;;;;;5054866;28;20492;-63
2023/05/07 06:54:34;;;;;;;5.50;3.37;;;15.60;98.00;;;;;;5054949;28;20453;-63
2023/05/07 06:57:01;;;;;;;5.27;3.00;;;15.60;98.00;;;;;;5054722;28;20454;-63
2023/05/07 06:59:28;;;;;;;4.33;2.67;;;15.70;98.00;;;;;;5054994;28;20497;-63
2023/05/07 07:01:55;;;;;;;6.50;2.67;;;15.70;98.00;;;;;;5054807;28;20457;-65
2023/05/07 07:04:24;;;;;;;5.23;2.93;;;15.80;98.00;;;;;;5054791;28;20468;-63
2023/05/07 07:06:53;;;;;;;5.53;2.67;;;16.00;98.00;;;;;;5054864;28;20461;-62
2023/05/07 07:09:20;;;;;;;4.80;2.63;;;16.20;98.00;;;;;;5036523;28;20507;-63
2023/05/07 07:11:50;;;;;;;4.23;2.60;;;16.40;98.00;;;;;;5054388;28;20455;-63
2023/05/07 07:14:17;;;;;;;4.30;2.50;;;16.60;98.00;;;;;;5046277;28;20519;-63
2023/05/07 07:16:44;;;;;;;4.30;2.63;;;16.90;98.00;;;;;;5036580;28;20867;-64
2023/05/07 07:19:11;;;;;;;3.20;2.20;;;17.00;98.00;;;;;;5036627;28;20477;-64
2023/05/07 07:21:38;;;;;;;4.60;2.57;;;17.10;98.00;;;;;;5054277;28;20879;-63
2023/05/07 07:24:07;;;;;;;3.40;2.27;;;17.40;98.00;;;;;;5036028;28;20449;-63
2023/05/07 07:26:34;;;;;;;4.40;2.77;;;17.50;98.00;;;;;;5054218;28;20489;-64
2023/05/07 07:29:01;;;;;;;4.80;2.30;;;17.80;98.00;;;;;;5053849;28;20461;-63
2023/05/07 07:31:28;;;;;;;5.33;2.80;;;18.00;98.00;;;;;;5052721;28;20449;-64
2023/05/07 07:33:56;;;;;;;4.17;2.60;;;18.20;98.00;;;;;;5032819;28;20951;-63
2023/05/07 07:36:23;;;;;;;4.50;2.80;;;18.40;98.00;;;;;;5034949;28;20454;-64
2023/05/07 07:38:50;;;;;;;2.13;1.87;;;18.70;98.00;;;;;;5033787;28;20458;-63
2023/05/07 07:41:21;;;;;;;4.20;2.50;;;18.90;98.00;;;;;;5034029;28;20848;-63
2023/05/07 07:43:48;;;;;;;3.47;2.40;;;19.00;98.00;;;;;;5033649;28;20462;-62
2023/05/07 07:46:15;;;;;;;5.20;2.60;;;19.20;98.00;;;;;;5033843;28;20772;-65
2023/05/07 07:48:42;;;;;;;4.10;2.33;;;19.40;98.00;;;;;;5033700;28;20454;-61
2023/05/07 07:51:09;;;;;;;3.40;2.53;;;19.50;98.00;;;;;;5033818;28;20465;-63
2023/05/07 07:53:36;;;;;;;4.40;2.50;;;19.70;98.00;;;;;;5033688;28;20446;-63
2023/05/07 07:56:04;;;;;;;3.60;2.50;;;19.90;98.00;;;;;;5033723;28;20458;-62
2023/05/07 07:58:32;;;;;;;3.53;2.90;;;20.10;98.00;;;;;;5014896;28;20474;-62
2023/05/07 08:01:05;;;;;;;5.80;2.40;;;20.20;98.00;;;;;;5033458;28;20458;-65
2023/05/07 08:03:32;;;;;;;4.57;2.73;;;20.30;98.00;;;;;;5049810;28;20532;-64
2023/05/07 08:06:00;;;;;;;4.67;2.80;;;20.50;98.00;;;;;;5053248;28;20882;-64
2023/05/07 08:08:27;;;;;;;5.47;2.73;;;20.70;98.00;;;;;;5035859;28;20458;-63
2023/05/07 08:10:54;;;;;;;4.77;2.70;;;20.80;98.00;;;;;;5052939;28;20461;-65
2023/05/07 08:13:22;;;;;;;7.33;3.50;;;21.00;98.00;;;;;;5053409;28;20453;-63
2023/05/07 08:15:51;;;;;;;5.10;3.30;;;21.20;98.00;;;;;;5053042;28;20454;-64
2023/05/07 08:18:18;;;;;;;6.80;3.60;;;21.30;98.00;;;;;;5053388;28;20828;-65
2023/05/07 08:20:45;;;;;;;4.37;2.73;;;21.40;98.00;;;;;;5019084;28;20453;-63
2023/05/07 08:23:12;;;;;;;5.77;2.80;;;21.50;98.00;;;;;;5053099;28;20454;-64
2023/05/07 08:25:39;;;;;;;4.80;3.00;;;21.60;98.00;;;;;;5052986;28;20564;-64
2023/05/07 08:28:07;;;;;;;4.73;3.00;;;21.80;98.00;;;;;;5053060;28;20497;-64
2023/05/07 08:30:34;;;;;;;4.67;3.03;;;21.90;98.00;;;;;;5052973;28;20453;-63
2023/05/07 08:33:02;;;;;;;4.67;3.17;;;22.00;98.00;;;;;;5053037;28;20458;-64
2023/05/07 08:35:30;;;;;;;4.10;3.07;;;22.20;98.00;;;;;;5052992;28;20449;-64
2023/05/07 08:37:57;;;;;;;4.63;2.90;;;22.30;98.00;;;;;;5018797;28;20461;-63
2023/05/07 08:40:27;;;;;;;4.90;3.20;;;22.50;98.00;;;;;;5052823;28;20977;-64
2023/05/07 08:42:55;;;;;;;3.90;2.63;;;22.50;98.00;;;;;;5052986;28;20519;-63
2023/05/07 08:45:25;;;;;;;5.27;3.20;;;22.60;98.00;;;;;;5052616;28;20473;-64
2023/05/07 08:47:56;;;;;;;4.80;3.20;;;22.70;98.00;;;;;;5035331;28;20449;-64
2023/05/07 08:50:24;;;;;;;3.60;2.70;;;22.90;98.00;;;;;;5052755;28;20513;-63
2023/05/07 08:52:52;;;;;;;5.40;3.03;;;23.00;98.00;;;;;;5052931;28;20856;-64
2023/05/07 08:55:20;;;;;;;3.57;2.77;;;23.10;98.00;;;;;;5035250;28;20874;-63
2023/05/07 08:57:52;;;;;;;4.60;3.17;;;23.20;98.00;;;;;;5052362;28;20987;-64
2023/05/07 09:00:19;;;;;;;4.23;2.80;;;23.30;98.00;;;;;;5052617;28;20454;-63
2023/05/07 09:02:46;;;;;;;4.10;2.97;;;23.40;98.00;;;;;;5052283;28;20450;-63
2023/05/07 09:05:13;;;;;;;3.70;2.73;;;23.50;98.00;;;;;;5052053;28;20489;-64
2023/05/07 09:07:42;;;;;;;3.33;2.73;;;23.60;98.00;;;;;;5052228;28;20446;-63
2023/05/07 09:10:10;;;;;;;5.10;3.20;;;23.60;98.00;;;;;;5052189;28;20454;-65
2023/05/07 09:12:39;;;;;;;5.20;3.50;;;23.60;98.00;;;;;;5052164;28;20452;-65
2023/05/07 09:15:07;;;;;;;4.13;2.80;;;23.40;98.00;;;;;;5052043;28;20553;-64
2023/05/07 09:17:36;;;;;;;6.83;2.97;;;23.30;98.00;;;;;;5034673;28;20442;-64
2023/05/07 09:20:07;;;;;;;4.10;2.97;;;23.20;98.00;;;;;;5051986;28;20449;-63
2023/05/07 09:22:35;;;;;;;4.57;3.03;;;23.30;98.00;;;;;;5034615;28;20461;-65
2023/05/07 09:25:03;;;;;;;3.77;2.60;;;23.50;98.00;;;;;;5051952;28;20457;-64
2023/05/07 09:27:32;;;;;;;4.10;2.63;;;23.70;98.00;;;;;;5051887;28;20481;-65
2023/05/07 09:29:59;;;;;;;4.43;2.70;;;23.90;98.00;;;;;;5051848;28;20458;-63
2023/05/07 09:32:27;;;;;;;3.77;2.63;;;24.10;98.00;;;;;;5052097;28;20560;-63
2023/05/07 09:34:54;;;;;;;3.00;2.43;;;24.20;96.40;;;;;;5051638;28;20457;-63
2023/05/07 09:37:21;;;;;;;4.13;2.50;;;24.40;98.00;;;;;;5051945;28;20457;-65
2023/05/07 09:39:50;;;;;;;4.17;2.87;;;24.50;98.00;;;;;;5051696;28;20515;-63
2023/05/07 09:42:26;;;;;;;4.80;3.50;;;24.70;98.00;;;;;;5051880;28;20457;-61
2023/05/07 09:44:53;;;;;;;3.30;2.70;;;24.80;97.50;;;;;;5051682;28;20457;-61
2023/05/07 09:47:21;;;;;;;4.20;2.77;;;25.00;93.60;;;;;;5051847;28;20975;-61
2023/05/07 09:49:51;;;;;;;4.77;2.93;;;25.00;94.60;;;;;;5052199;28;20465;-61
2023/05/07 09:52:20;;;;;;;3.57;2.60;;;25.00;95.60;;;;;;5017666;28;20842;-61
2023/05/07 09:54:49;;;;;;;4.63;3.13;;;25.20;94.60;;;;;;5051588;28;21120;-61
2023/05/07 09:57:20;;;;;;;3.73;2.70;;;25.30;93.00;;;;;;5051415;28;20933;-61
2023/05/07 09:59:52;;;;;;;4.63;2.77;;;25.50;94.20;;;;;;5051545;28;20450;-61
2023/05/07 10:02:21;;;;;;;3.30;2.60;;;25.70;92.90;;;;;;5051465;28;20959;-61
2023/05/07 10:04:50;;;;;;;3.97;2.70;;;25.80;89.90;;;;;;5033840;28;20802;-61
2023/05/07 10:07:18;;;;;;;3.83;2.70;;;25.90;92.50;;;;;;5051373;28;20485;-61
2023/05/07 10:09:46;;;;;;;3.50;2.63;;;25.90;92.40;;;;;;5051151;28;20457;-61
2023/05/07 10:12:13;;;;;;;4.13;2.67;;;25.90;91.70;;;;;;5051291;28;20545;-61
2023/05/07 10:14:41;;;;;;;5.53;3.40;;;25.70;89.90;;;;;;5051156;28;20458;-62
2023/05/07 10:17:11;;;;;;;4.40;3.03;;;25.80;91.10;;;;;;5051017;28;20458;-62
2023/05/07 10:19:40;;;;;;;4.07;2.63;;;25.90;91.20;;;;;;5051219;28;20519;-61
2023/05/07 10:22:11;;;;;;;4.23;2.90;;;25.80;91.20;;;;;;5050499;28;20458;-61
2023/05/07 10:24:38;;;;;;;5.43;2.97;;;25.70;91.40;;;;;;5017494;28;20458;-61
2023/05/07 10:27:09;;;;;;;3.70;2.80;;;25.40;91.80;;;;;;5050877;28;20461;-61
2023/05/07 10:29:46;;;;;;;3.67;2.77;;;25.30;93.40;;;;;;5051041;28;20453;-61
2023/05/07 10:32:34;;;;;;;5.10;2.70;;;25.20;89.80;;;;;;5051295;28;20826;-62
2023/05/07 10:35:06;;;;;;;4.40;2.73;;;25.40;92.40;;;;;;5048346;28;20465;-61
2023/05/07 10:37:33;;;;;;;4.97;2.87;;;25.60;89.80;;;;;;5033468;28;20472;-63
2023/05/07 10:40:01;;;;;;;3.40;2.47;;;25.60;90.40;;;;;;5051061;28;20465;-61
2023/05/07 10:42:28;;;;;;;4.30;2.80;;;25.60;91.60;;;;;;5033593;28;20458;-61
2023/05/07 10:44:59;;;;;;;3.30;2.23;;;25.80;95.00;;;;;;5050983;28;20588;-61
2023/05/07 10:47:26;;;;;;;3.37;2.73;;;26.10;90.50;;;;;;5017647;28;20489;-61
2023/05/07 10:50:31;;;;;;;3.70;2.40;;;26.40;88.10;;;;;;5033261;28;20457;-61
2023/05/07 10:53:28;;;;;;;4.60;2.73;;;26.40;88.00;;;;;;5050840;28;20951;-62
2023/05/07 10:56:26;;;;;;;4.20;2.90;;;26.10;88.20;;;;;;5038015;28;20469;-61
2023/05/07 10:58:53;;;;;;;4.30;2.97;;;25.90;88.10;;;;;;5050494;28;20565;-62
2023/05/07 11:01:54;;;;;;;3.33;2.70;;;25.60;87.70;;;;;;5050503;28;21031;-61
2023/05/07 11:04:26;;;;;;;3.37;2.60;;;26.00;90.00;;;;;;5043661;28;20914;-60
2023/05/07 11:07:30;;;;;;;4.43;3.00;;;26.50;90.60;;;;;;5030914;28;20494;-59
2023/05/07 11:10:01;;;;;;;3.50;2.57;;;26.90;86.10;;;;;;5030582;28;20454;-58
2023/05/07 11:12:56;;;;;;;4.80;2.87;;;27.20;84.10;;;;;;5030815;28;20537;-58
2023/05/07 11:15:41;;;;;;;4.10;2.40;;;27.30;86.50;;;;;;5030534;28;20549;-58
2023/05/07 11:18:10;;;;;;;3.37;2.70;;;27.20;86.80;;;;;;5030785;28;20455;-58
2023/05/07 11:20:50;;;;;;;4.27;2.60;;;27.00;87.70;;;;;;5030518;28;20920;-58
2023/05/07 11:23:57;;;;;;;4.03;3.00;;;27.10;86.30;;;;;;5030947;28;20462;-59
2023/05/07 11:26:25;;;;;;;4.70;2.87;;;27.40;84.80;;;;;;5027168;28;20521;-57
2023/05/07 11:28:53;;;;;;;3.83;2.50;;;27.70;85.60;;;;;;5013043;28;20473;-58
2023/05/07 11:31:25;;;;;;;3.17;2.70;;;27.90;83.30;;;;;;5012883;28;21022;-58
2023/05/07 11:33:55;;;;;;;5.23;3.53;;;27.90;81.90;;;;;;5033798;28;20557;-58
2023/05/07 11:36:24;;;;;;;3.90;2.90;;;28.00;83.10;;;;;;5034169;28;20462;-58
2023/05/07 11:38:51;;;;;;;3.30;2.47;;;28.00;82.70;;;;;;5034221;28;20462;-60
2023/05/07 11:41:19;;;;;;;4.70;3.00;;;27.70;80.80;;;;;;5034021;28;20451;-60
2023/05/07 11:43:59;;;;;;;3.70;2.73;;;27.40;83.50;;;;;;5034063;28;20546;-59
2023/05/07 11:46:28;;;;;;;3.40;2.87;;;27.10;81.50;;;;;;5033933;28;20482;-59
2023/05/07 11:48:57;;;;;;;3.50;2.63;;;27.00;82.20;;;;;;5033852;28;20454;-60
2023/05/07 11:51:29;;;;;;;3.50;2.70;;;26.90;85.80;;;;;;5033828;28;20462;-60
2023/05/07 11:53:56;;;;;;;3.60;2.50;;;27.40;88.00;;;;;;5033627;28;20968;-60
2023/05/07 11:56:24;;;;;;;4.00;2.70;;;28.00;83.30;;;;;;5016377;28;20508;-61
2023/05/07 11:58:51;;;;;;;4.47;2.67;;;28.40;81.80;;;;;;5015782;28;20964;-60
2023/05/07 12:01:19;;;;;;;6.63;3.03;;;28.80;82.30;;;;;;5033680;28;20520;-61
2023/05/07 12:03:47;;;;;;;4.10;2.70;;;28.90;78.60;;;;;;5033766;28;21040;-60
2023/05/07 12:06:17;;;;;;;2.77;2.20;;;29.00;80.80;;;;;;5033341;28;20457;-60
2023/05/07 12:08:45;;;;;;;4.70;2.50;;;28.90;79.40;;;;;;5033481;28;20876;-60
2023/05/07 12:11:17;;;;;;;2.87;2.33;;;28.80;78.60;;;;;;5032998;28;20455;-60
2023/05/07 12:13:45;;;;;;;5.70;2.70;;;28.60;76.50;;;;;;5033523;28;20824;-60
2023/05/07 12:16:13;;;;;;;4.33;2.77;;;28.40;77.40;;;;;;5031572;28;20461;-61
2023/05/07 12:18:41;;;;;;;2.90;2.43;;;28.20;79.00;;;;;;5031850;28;20458;-60
2023/05/07 12:21:08;;;;;;;8.03;2.83;;;28.00;80.70;;;;;;5033275;28;20958;-59
2023/05/07 12:23:37;;;;;;;3.63;2.50;;;27.60;78.50;;;;;;5033546;28;20461;-60
2023/05/07 12:26:05;;;;;;;2.63;2.30;;;27.20;79.90;;;;;;5033061;28;20481;-58
2023/05/07 12:28:39;;;;;;;3.80;2.80;;;26.70;80.10;;;;;;5033186;28;20505;-60
2023/05/07 12:31:06;;;;;;;3.63;2.73;;;26.40;81.40;;;;;;4999884;28;20459;-60
2023/05/07 12:33:33;;;;;;;2.70;2.37;;;26.10;81.90;;;;;;5033673;28;20541;-60
2023/05/07 12:36:06;;;;;;;2.73;2.23;;;26.00;82.20;;;;;;5032954;28;20952;-60
2023/05/07 12:38:39;;;;;;;3.43;2.50;;;26.00;82.40;;;;;;5033100;28;20790;-60
2023/05/07 12:41:08;;;;;;;3.93;2.80;;;25.80;82.70;;;;;;5032484;28;20467;-56
2023/05/07 12:43:36;;;;;;;3.33;2.60;;;25.70;83.00;;;;;;5032348;28;20750;-61
2023/05/07 12:46:06;;;;;;;2.97;2.30;;;25.50;84.00;;;;;;5032838;28;20466;-61
2023/05/07 12:48:34;;;;;;;4.50;2.80;;;25.50;84.20;;;;;;5033057;28;20578;-60
2023/05/07 12:51:02;;;;;;;2.87;2.30;;;25.30;84.60;;;;;;5045013;28;20817;-59
2023/05/07 12:53:31;;;;;;;4.63;2.60;;;25.30;86.40;;;;;;5052910;28;20496;-58
2023/05/07 12:56:00;;;;;;;3.43;2.60;;;25.10;85.60;;;;;;5052690;28;20511;-59